Time;durP1;ratioP1;P1;durP2;ratioP2;P2;SDS_P1;SDS_P2;PMS_P1;PMS_P2;Temp;Humidity;BMP_temperature;BMP_pressure;BME280_temperature;BME280_humidity;BME280_pressure;Samples;Min_cycle;Max_cycle;Signal;HPM_P1;HPM_P2
2022/10/19 00:00:38;;;;;;;50.77;27.10;;;;;;;11.45;100.00;101202.25;5086727;27;20285;-68
2022/10/19 00:03:04;;;;;;;49.90;27.50;;;;;;;11.44;100.00;101192.84;5087008;27;20191;-68
2022/10/19 00:05:29;;;;;;;56.70;28.00;;;;;;;11.38;100.00;101191.34;5090306;28;20253;-68
2022/10/19 00:07:54;;;;;;;56.13;28.03;;;;;;;11.37;100.00;101193.97;5090889;28;20278;-68
2022/10/19 00:10:19;;;;;;;48.70;27.47;;;;;;;11.30;100.00;101201.13;5082841;28;20523;-67
2022/10/19 00:12:45;;;;;;;57.60;28.03;;;;;;;11.35;100.00;101198.34;5104971;28;20227;-68
2022/10/19 00:15:10;;;;;;;55.10;28.23;;;;;;;11.34;100.00;101194.94;5091523;28;20180;-67
2022/10/19 00:17:35;;;;;;;49.90;25.97;;;;;;;11.35;100.00;101191.47;5091195;28;20250;-68
2022/10/19 00:20:01;;;;;;;60.83;28.50;;;;;;;11.31;100.00;101192.47;5091357;28;20176;-68
2022/10/19 00:22:26;;;;;;;51.80;27.80;;;;;;;11.10;100.00;101197.59;5096659;28;20219;-68
2022/10/19 00:24:51;;;;;;;57.70;28.77;;;;;;;11.12;100.00;101202.69;5091385;28;20263;-68
2022/10/19 00:27:17;;;;;;;53.83;27.97;;;;;;;11.06;100.00;101192.63;5087792;28;20657;-68
2022/10/19 00:29:42;;;;;;;53.13;28.23;;;;;;;11.09;100.00;101193.34;5091307;28;20198;-68
2022/10/19 00:32:07;;;;;;;56.63;28.17;;;;;;;11.17;100.00;101194.78;5096699;28;20271;-68
2022/10/19 00:34:32;;;;;;;60.60;27.80;;;;;;;11.10;100.00;101196.75;5091374;28;20182;-68
2022/10/19 00:36:57;;;;;;;61.43;29.03;;;;;;;11.16;100.00;101193.94;5090949;28;20170;-68
2022/10/19 00:39:23;;;;;;;55.27;27.43;;;;;;;11.17;100.00;101195.59;5092163;28;20187;-68
2022/10/19 00:41:48;;;;;;;63.43;28.10;;;;;;;11.20;100.00;101189.50;5090014;28;21042;-68
2022/10/19 00:44:14;;;;;;;52.00;27.40;;;;;;;11.19;100.00;101186.09;5093841;28;20192;-68
2022/10/19 00:46:47;;;;;;;57.67;29.90;;;;;;;11.07;100.00;101189.97;5094840;28;20187;-68
2022/10/19 00:49:16;;;;;;;49.47;27.00;;;;;;;11.08;100.00;101190.84;5095540;28;20184;-68
2022/10/19 00:51:46;;;;;;;58.83;29.30;;;;;;;11.05;100.00;101193.50;5097717;27;20226;-68
2022/10/19 00:54:13;;;;;;;58.13;27.57;;;;;;;11.05;100.00;101184.06;5097281;28;20240;-68
2022/10/19 00:56:41;;;;;;;55.77;27.90;;;;;;;11.01;100.00;101186.81;5094846;28;20653;-67
2022/10/19 00:59:08;;;;;;;55.17;27.27;;;;;;;11.05;100.00;101193.50;5095249;28;20195;-67
2022/10/19 01:01:34;;;;;;;63.43;27.50;;;;;;;11.06;100.00;101184.91;5086374;28;20681;-68
2022/10/19 01:04:00;;;;;;;49.83;27.23;;;;;;;11.06;100.00;101177.16;5098610;28;20188;-67
2022/10/19 01:06:26;;;;;;;43.17;24.30;;;;;;;10.88;100.00;101184.72;5094229;28;20207;-68
2022/10/19 01:08:51;;;;;;;52.20;25.80;;;;;;;11.01;100.00;101185.06;5094782;28;20269;-68
2022/10/19 01:11:40;;;;;;;46.60;24.83;;;;;;;10.92;100.00;101194.00;5094091;28;20689;-68
2022/10/19 01:14:24;;;;;;;47.07;24.87;;;;;;;10.84;100.00;101190.88;5085772;28;20184;-67
2022/10/19 01:17:05;;;;;;;40.07;24.33;;;;;;;10.76;100.00;101183.44;5092930;28;20180;-68
2022/10/19 01:20:16;;;;;;;45.40;25.40;;;;;;;10.73;100.00;101180.13;5095074;28;20191;-68
2022/10/19 01:23:27;;;;;;;50.13;24.60;;;;;;;10.78;100.00;101179.06;5072128;28;20230;-67
2022/10/19 01:26:29;;;;;;;55.97;27.73;;;;;;;10.87;100.00;101179.63;5086865;28;20559;-67
2022/10/19 01:29:12;;;;;;;49.33;26.17;;;;;;;10.96;100.00;101172.41;5092810;28;20238;-67
2022/10/19 01:31:55;;;;;;;44.03;25.03;;;;;;;10.99;100.00;101168.88;5089183;28;20352;-67
2022/10/19 01:34:25;;;;;;;50.23;27.50;;;;;;;11.09;100.00;101161.63;5095674;28;20256;-67
2022/10/19 01:37:01;;;;;;;50.43;26.03;;;;;;;11.02;100.00;101166.16;5094040;28;20199;-67
2022/10/19 01:39:42;;;;;;;45.40;26.83;;;;;;;11.10;100.00;101161.56;5081231;28;20626;-67
2022/10/19 01:42:24;;;;;;;43.30;25.17;;;;;;;10.99;100.00;101161.13;5096644;28;20226;-67
2022/10/19 01:45:16;;;;;;;47.30;25.50;;;;;;;10.87;100.00;101165.00;5093674;28;20180;-67
2022/10/19 01:47:54;;;;;;;48.43;25.33;;;;;;;10.92;100.00;101170.00;5082660;28;20266;-67
2022/10/19 01:50:37;;;;;;;55.90;25.40;;;;;;;10.89;100.00;101165.81;5085923;28;20658;-67
2022/10/19 01:53:06;;;;;;;46.47;24.90;;;;;;;10.96;100.00;101163.81;5104969;28;20216;-67
2022/10/19 01:55:33;;;;;;;57.63;26.40;;;;;;;10.91;100.00;101160.59;5094533;28;20192;-67
2022/10/19 01:58:03;;;;;;;41.47;24.33;;;;;;;10.83;100.00;101158.31;5093260;28;20183;-67
2022/10/19 02:00:31;;;;;;;44.23;25.30;;;;;;;10.81;100.00;101163.50;5087005;28;20255;-68
2022/10/19 02:02:59;;;;;;;43.90;24.47;;;;;;;10.78;100.00;101150.78;5105958;28;20180;-68
2022/10/19 02:05:30;;;;;;;48.53;24.53;;;;;;;10.60;100.00;101151.47;5094174;28;20291;-67
2022/10/19 02:07:59;;;;;;;41.53;23.93;;;;;;;10.59;100.00;101160.09;5093099;28;20243;-67
2022/10/19 02:10:27;;;;;;;45.60;23.67;;;;;;;10.64;100.00;101150.44;5072089;28;20311;-67
2022/10/19 02:12:54;;;;;;;42.00;23.70;;;;;;;10.62;100.00;101144.53;5093686;28;20224;-67
2022/10/19 02:15:22;;;;;;;36.20;21.83;;;;;;;10.54;100.00;101146.56;5092013;28;20188;-67
2022/10/19 02:17:51;;;;;;;46.30;24.87;;;;;;;10.57;100.00;101156.75;5091576;28;20210;-67
2022/10/19 02:20:17;;;;;;;42.73;23.33;;;;;;;10.54;100.00;101149.94;5085053;28;20183;-67
2022/10/19 02:22:43;;;;;;;39.43;22.07;;;;;;;10.55;100.00;101146.50;5104591;28;20176;-67
2022/10/19 02:25:09;;;;;;;41.30;23.10;;;;;;;10.39;100.00;101142.81;5093498;28;20654;-67
2022/10/19 02:27:38;;;;;;;46.17;23.13;;;;;;;10.43;100.00;101145.22;5093022;28;20204;-67
2022/10/19 02:30:05;;;;;;;40.97;23.70;;;;;;;10.40;100.00;101141.94;5082785;28;20182;-67
2022/10/19 02:32:30;;;;;;;48.90;23.07;;;;;;;10.28;100.00;101135.47;5108226;28;20666;-67
2022/10/19 02:34:56;;;;;;;43.50;24.27;;;;;;;10.25;100.00;101139.00;5093385;28;20258;-67
2022/10/19 02:37:23;;;;;;;45.03;22.70;;;;;;;10.21;100.00;101139.16;5092767;28;20183;-68
2022/10/19 02:39:48;;;;;;;42.70;22.20;;;;;;;10.26;100.00;101134.69;5091827;28;20180;-67
2022/10/19 02:42:26;;;;;;;49.80;22.63;;;;;;;10.21;100.00;101129.72;5086764;28;20289;-67
2022/10/19 02:45:03;;;;;;;37.60;21.50;;;;;;;10.15;100.00;101129.94;5091870;28;20180;-68
2022/10/19 02:47:34;;;;;;;40.03;22.23;;;;;;;10.21;100.00;101128.88;5092995;28;20191;-67
2022/10/19 02:50:03;;;;;;;46.53;23.30;;;;;;;10.23;100.00;101132.22;5093199;28;20184;-67
2022/10/19 02:52:29;;;;;;;50.37;23.60;;;;;;;10.21;100.00;101128.88;5064599;28;20271;-67
2022/10/19 02:54:54;;;;;;;53.50;24.17;;;;;;;10.17;100.00;101125.56;5092590;28;20181;-67
2022/10/19 02:57:22;;;;;;;47.37;23.33;;;;;;;10.17;100.00;101129.00;5092378;28;20745;-67
2022/10/19 02:59:48;;;;;;;54.37;26.00;;;;;;;10.17;100.00;101138.41;5092773;28;20172;-67
2022/10/19 03:02:15;;;;;;;56.90;24.90;;;;;;;10.17;100.00;101130.69;5070651;28;20224;-67
2022/10/19 03:04:41;;;;;;;45.40;24.67;;;;;;;10.12;100.00;101130.03;5092809;28;20191;-67
2022/10/19 03:07:07;;;;;;;54.37;25.47;;;;;;;10.16;100.00;101132.44;5092069;28;20196;-67
2022/10/19 03:09:33;;;;;;;52.57;26.07;;;;;;;10.12;100.00;101130.91;5091265;28;20245;-67
2022/10/19 03:11:58;;;;;;;45.87;22.60;;;;;;;10.07;100.00;101131.94;5096856;28;20239;-67
2022/10/19 03:14:23;;;;;;;51.30;24.97;;;;;;;10.13;100.00;101126.56;5093185;28;20181;-66
2022/10/19 03:16:49;;;;;;;48.93;24.47;;;;;;;10.16;100.00;101127.31;5090894;27;20298;-67
2022/10/19 03:19:14;;;;;;;46.37;24.63;;;;;;;10.24;100.00;101121.88;5090565;28;20187;-67
2022/10/19 03:21:39;;;;;;;46.27;24.43;;;;;;;10.33;100.00;101129.28;5094455;28;20229;-67
2022/10/19 03:24:04;;;;;;;52.07;25.97;;;;;;;10.36;100.00;101123.19;5090825;28;20186;-67
2022/10/19 03:26:30;;;;;;;42.33;23.43;;;;;;;10.41;100.00;101116.16;5091727;28;20588;-66
2022/10/19 03:28:55;;;;;;;40.47;23.67;;;;;;;10.51;100.00;101121.78;5092251;28;20195;-66
2022/10/19 03:31:20;;;;;;;36.57;20.90;;;;;;;10.64;100.00;101123.00;5060035;27;20226;-66
2022/10/19 03:33:46;;;;;;;35.87;21.67;;;;;;;10.73;100.00;101119.22;5094100;28;20179;-66
2022/10/19 03:36:22;;;;;;;41.50;22.67;;;;;;;10.79;100.00;101124.13;5091990;28;20187;-67
2022/10/19 03:38:50;;;;;;;33.73;21.07;;;;;;;10.81;100.00;101118.94;5088801;28;20594;-67
2022/10/19 03:41:15;;;;;;;36.47;20.80;;;;;;;10.86;100.00;101119.56;5087126;28;20232;-66
2022/10/19 03:43:41;;;;;;;36.97;21.10;;;;;;;10.98;100.00;101121.66;5090031;28;20321;-67
2022/10/19 03:46:07;;;;;;;41.90;22.53;;;;;;;11.03;100.00;101115.50;5091839;28;20183;-67
2022/10/19 03:48:33;;;;;;;34.33;20.93;;;;;;;11.12;100.00;101104.81;5091498;28;20620;-67
2022/10/19 03:51:19;;;;;;;39.57;21.30;;;;;;;11.16;100.00;101103.78;5083797;28;20219;-67
2022/10/19 03:53:45;;;;;;;29.73;20.93;;;;;;;11.03;100.00;101113.75;5086188;28;20175;-67
2022/10/19 03:56:14;;;;;;;34.30;21.00;;;;;;;11.11;100.00;101101.44;5091969;28;20263;-67
2022/10/19 03:58:41;;;;;;;35.80;21.43;;;;;;;11.18;100.00;101101.19;5091578;28;20265;-67
2022/10/19 04:01:09;;;;;;;38.97;21.80;;;;;;;10.96;100.00;101097.75;5089535;28;20274;-67
2022/10/19 04:03:34;;;;;;;35.87;20.80;;;;;;;10.82;100.00;101100.00;5090301;28;20175;-67
2022/10/19 04:06:15;;;;;;;36.93;21.73;;;;;;;10.58;100.00;101101.78;5091454;28;20541;-67
2022/10/19 04:08:41;;;;;;;32.37;19.67;;;;;;;10.79;100.00;101107.84;5091620;28;20210;-67
2022/10/19 04:11:11;;;;;;;41.83;21.80;;;;;;;10.70;100.00;101106.47;5089553;28;20241;-67
2022/10/19 04:13:36;;;;;;;35.47;20.17;;;;;;;10.72;100.00;101112.41;5098050;28;20194;-67
2022/10/19 04:16:02;;;;;;;36.60;21.20;;;;;;;10.77;100.00;101109.66;5089664;28;20279;-67
2022/10/19 04:18:27;;;;;;;38.63;21.97;;;;;;;10.64;100.00;101106.72;5081577;28;20188;-67
2022/10/19 04:21:05;;;;;;;37.37;21.23;;;;;;;10.68;100.00;101107.44;5087644;28;20233;-67
2022/10/19 04:23:33;;;;;;;34.80;21.43;;;;;;;10.74;100.00;101120.06;5099039;28;20700;-67
2022/10/19 04:26:00;;;;;;;39.83;21.07;;;;;;;10.69;100.00;101112.50;5091275;28;20622;-67
2022/10/19 04:28:25;;;;;;;44.20;22.03;;;;;;;10.62;100.00;101108.53;5090785;28;20261;-67
2022/10/19 04:30:50;;;;;;;37.57;20.43;;;;;;;10.43;100.00;101113.50;5087176;28;20223;-67
2022/10/19 04:33:16;;;;;;;36.77;21.17;;;;;;;10.55;100.00;101114.78;5101051;28;20248;-67
2022/10/19 04:35:41;;;;;;;39.23;21.47;;;;;;;10.52;100.00;101117.47;5091259;28;20179;-67
2022/10/19 04:38:06;;;;;;;42.20;21.90;;;;;;;10.48;100.00;101127.88;5090943;28;20213;-67
2022/10/19 04:40:34;;;;;;;37.30;21.50;;;;;;;10.49;100.00;101116.72;5082710;28;20276;-67
2022/10/19 04:42:59;;;;;;;45.63;22.00;;;;;;;10.49;100.00;101121.84;5090646;28;20183;-67
2022/10/19 04:45:24;;;;;;;37.23;21.93;;;;;;;10.51;100.00;101119.22;5091166;28;20267;-67
2022/10/19 04:47:50;;;;;;;40.93;22.60;;;;;;;10.53;100.00;101121.72;5090834;28;20606;-67
2022/10/19 04:50:15;;;;;;;32.97;20.67;;;;;;;10.51;100.00;101121.78;5071744;28;20635;-67
2022/10/19 04:52:43;;;;;;;39.03;21.87;;;;;;;10.49;100.00;101116.72;5090269;28;20175;-67
2022/10/19 04:55:09;;;;;;;42.13;22.67;;;;;;;10.40;100.00;101121.34;5091338;28;20175;-67
2022/10/19 04:57:34;;;;;;;43.60;22.57;;;;;;;10.52;100.00;101117.47;5090783;28;20265;-67
2022/10/19 04:59:59;;;;;;;38.83;21.43;;;;;;;10.71;100.00;101108.16;5090685;28;20198;-67
2022/10/19 05:02:24;;;;;;;39.70;20.97;;;;;;;10.68;100.00;101118.56;5080212;28;20625;-67
2022/10/19 05:04:50;;;;;;;36.70;22.07;;;;;;;10.90;100.00;101112.56;5091255;28;20187;-67
2022/10/19 05:07:15;;;;;;;38.17;21.33;;;;;;;10.96;100.00;101113.19;5090338;28;20225;-67
2022/10/19 05:09:40;;;;;;;35.47;19.93;;;;;;;11.04;100.00;101114.59;5090885;28;20183;-67
2022/10/19 05:12:06;;;;;;;32.53;20.03;;;;;;;10.98;100.00;101113.13;5096257;28;20238;-67
2022/10/19 05:14:32;;;;;;;33.73;21.33;;;;;;;11.05;100.00;101113.69;5089211;28;20248;-67
2022/10/19 05:16:57;;;;;;;32.53;20.27;;;;;;;11.12;100.00;101107.41;5090575;28;20195;-67
2022/10/19 05:19:23;;;;;;;35.90;20.73;;;;;;;11.20;100.00;101110.50;5091299;28;20180;-67
2022/10/19 05:21:48;;;;;;;25.50;18.37;;;;;;;11.31;100.00;101104.91;5079414;28;20246;-67
2022/10/19 05:24:13;;;;;;;38.73;21.60;;;;;;;11.33;100.00;101102.28;5093074;28;20180;-67
2022/10/19 05:26:38;;;;;;;30.50;19.93;;;;;;;11.37;100.00;101099.50;5091372;28;20288;-67
2022/10/19 05:29:04;;;;;;;35.07;20.23;;;;;;;11.33;100.00;101094.56;5094507;28;20199;-67
2022/10/19 05:31:31;;;;;;;33.10;19.83;;;;;;;11.26;100.00;101094.81;5086052;28;20287;-68
2022/10/19 05:33:58;;;;;;;30.13;20.63;;;;;;;11.10;100.00;101091.16;5098303;28;20259;-68
2022/10/19 05:36:26;;;;;;;27.13;19.20;;;;;;;11.06;100.00;101092.19;5094081;28;20638;-68
2022/10/19 05:38:54;;;;;;;29.90;19.67;;;;;;;10.98;100.00;101092.53;5094243;28;20178;-67
2022/10/19 05:41:20;;;;;;;29.90;19.43;;;;;;;10.94;100.00;101090.94;5089324;28;20231;-67
2022/10/19 05:43:46;;;;;;;28.57;19.33;;;;;;;10.87;100.00;101097.25;5092129;28;20203;-67
2022/10/19 05:46:16;;;;;;;33.23;19.60;;;;;;;10.80;100.00;101097.50;5094261;28;20265;-67
2022/10/19 05:48:41;;;;;;;32.67;20.03;;;;;;;10.84;100.00;101103.38;5094128;28;20196;-67
2022/10/19 05:51:10;;;;;;;31.93;20.10;;;;;;;10.71;100.00;101100.44;5085432;28;20227;-67
2022/10/19 05:53:35;;;;;;;30.37;18.23;;;;;;;10.71;100.00;101102.19;5100955;28;20689;-67
2022/10/19 05:56:03;;;;;;;30.20;19.67;;;;;;;10.63;100.00;101105.03;5094022;28;20203;-67
2022/10/19 05:58:28;;;;;;;32.20;18.17;;;;;;;10.55;100.00;101099.34;5093134;28;20634;-68
2022/10/19 06:00:56;;;;;;;36.00;19.23;;;;;;;10.61;100.00;101105.09;5091415;27;20233;-67
2022/10/19 06:03:22;;;;;;;30.53;18.80;;;;;;;10.55;100.00;101109.66;5104739;27;20218;-68
2022/10/19 06:05:48;;;;;;;36.07;18.80;;;;;;;10.55;100.00;101094.22;5093871;28;20237;-68
2022/10/19 06:08:14;;;;;;;30.20;17.97;;;;;;;10.50;100.00;101114.97;5093095;28;20208;-68
2022/10/19 06:10:39;;;;;;;29.47;18.37;;;;;;;10.54;100.00;101110.53;5088308;28;20310;-68
2022/10/19 06:13:05;;;;;;;29.30;16.77;;;;;;;10.59;100.00;101112.06;5093070;28;20449;-68
2022/10/19 06:15:35;;;;;;;31.13;17.37;;;;;;;10.48;100.00;101111.59;5092331;28;20180;-67
2022/10/19 06:18:03;;;;;;;31.23;17.43;;;;;;;10.43;100.00;101108.38;5093050;28;20711;-67
2022/10/19 06:20:28;;;;;;;34.00;17.63;;;;;;;10.48;100.00;101115.03;5086228;28;20227;-67
2022/10/19 06:22:53;;;;;;;33.63;18.00;;;;;;;10.56;100.00;101116.47;5102512;27;20193;-68
2022/10/19 06:25:19;;;;;;;32.83;18.30;;;;;;;10.61;100.00;101105.09;5092982;28;20213;-68
2022/10/19 06:27:44;;;;;;;28.27;17.60;;;;;;;10.68;100.00;101107.44;5088085;28;20195;-68
2022/10/19 06:30:10;;;;;;;29.43;18.87;;;;;;;10.66;100.00;101103.16;5081737;28;20176;-68
2022/10/19 06:32:35;;;;;;;31.77;17.67;;;;;;;10.67;100.00;101111.75;5105012;27;20180;-68
2022/10/19 06:35:00;;;;;;;30.00;18.23;;;;;;;10.69;100.00;101098.81;5094879;28;20184;-68
2022/10/19 06:37:26;;;;;;;26.03;18.17;;;;;;;10.56;100.00;101099.28;5092175;28;20634;-68
2022/10/19 06:39:51;;;;;;;37.47;18.43;;;;;;;10.56;100.00;101101.88;5098204;28;20191;-68
2022/10/19 06:42:16;;;;;;;32.03;19.47;;;;;;;10.69;100.00;101099.63;5090329;28;20232;-68
2022/10/19 06:44:41;;;;;;;26.77;17.77;;;;;;;10.66;100.00;101108.31;5081112;28;20630;-68
2022/10/19 06:47:07;;;;;;;29.33;19.80;;;;;;;10.86;100.00;101114.44;5093230;28;20180;-68
2022/10/19 06:49:34;;;;;;;40.97;20.03;;;;;;;10.93;100.00;101112.47;5094879;28;20180;-68
2022/10/19 06:52:00;;;;;;;29.83;17.40;;;;;;;11.11;100.00;101124.59;5097683;28;20215;-68
2022/10/19 06:54:25;;;;;;;35.27;18.83;;;;;;;11.04;100.00;101118.03;5093290;28;20183;-68
2022/10/19 06:56:50;;;;;;;30.13;19.00;;;;;;;11.26;100.00;101118.00;5092369;28;20219;-68
2022/10/19 06:59:16;;;;;;;37.73;18.23;;;;;;;11.16;100.00;101111.53;5093118;28;20180;-66
2022/10/19 07:01:41;;;;;;;39.60;18.97;;;;;;;11.32;100.00;101119.47;5070916;27;20281;-71
2022/10/19 07:04:07;;;;;;;31.03;18.63;;;;;;;11.38;100.00;101126.09;5093168;28;20172;-63
2022/10/19 07:06:32;;;;;;;39.60;19.80;;;;;;;11.61;100.00;101125.97;5092152;28;20220;-68
2022/10/19 07:08:57;;;;;;;33.57;19.87;;;;;;;11.39;100.00;101120.06;5088102;28;20606;-68
2022/10/19 07:11:22;;;;;;;28.17;18.27;;;;;;;11.56;100.00;101116.75;5080928;28;20249;-68
2022/10/19 07:13:48;;;;;;;33.70;19.70;;;;;;;11.61;100.00;101114.84;5095374;28;20252;-68
2022/10/19 07:16:16;;;;;;;30.13;17.60;;;;;;;11.74;100.00;101123.69;5089503;28;20665;-68
2022/10/19 07:18:41;;;;;;;27.47;17.87;;;;;;;11.53;100.00;101128.03;5097334;28;20191;-68
2022/10/19 07:21:10;;;;;;;24.53;16.73;;;;;;;11.62;100.00;101132.81;5082880;28;20272;-68
2022/10/19 07:23:37;;;;;;;27.90;17.00;;;;;;;11.81;100.00;101128.59;5098198;28;20183;-68
2022/10/19 07:26:10;;;;;;;26.10;16.87;;;;;;;11.92;100.00;101124.66;5091093;28;20592;-68
2022/10/19 07:28:37;;;;;;;29.27;17.63;;;;;;;12.02;100.00;101122.53;5090949;28;20200;-68
2022/10/19 07:31:07;;;;;;;27.80;17.13;;;;;;;12.22;100.00;101129.38;5059361;27;20283;-68
2022/10/19 07:33:32;;;;;;;32.23;17.47;;;;;;;12.57;100.00;101131.25;5086329;28;20565;-68
2022/10/19 07:35:59;;;;;;;21.87;15.77;;;;;;;12.71;100.00;101121.13;5090745;28;20180;-68
2022/10/19 07:38:24;;;;;;;26.77;16.17;;;;;;;12.82;100.00;101125.78;5090122;28;20172;-68
2022/10/19 07:40:49;;;;;;;25.23;16.33;;;;;;;13.12;100.00;101125.19;5086652;28;20234;-68
2022/10/19 07:43:15;;;;;;;25.63;15.07;;;;;;;13.39;100.00;101120.44;5088717;28;20542;-68
2022/10/19 07:45:40;;;;;;;22.47;15.47;;;;;;;13.72;100.00;101121.41;5090922;28;20187;-68
2022/10/19 07:48:05;;;;;;;20.97;15.57;;;;;;;13.69;100.00;101119.81;5090091;28;20268;-68
2022/10/19 07:50:31;;;;;;;22.20;13.67;;;;;;;13.29;100.00;101118.38;5083161;28;20234;-68
2022/10/19 07:52:56;;;;;;;26.67;13.97;;;;;;;13.52;100.00;101123.25;5074787;28;20185;-68
2022/10/19 07:55:21;;;;;;;20.40;12.77;;;;;;;13.60;100.00;101117.69;5090792;28;20202;-68
2022/10/19 07:57:48;;;;;;;22.53;13.03;;;;;;;13.91;100.00;101120.47;5090065;28;20271;-69
2022/10/19 08:00:15;;;;;;;19.23;11.30;;;;;;;13.54;100.00;101115.44;5080266;28;20658;-68
2022/10/19 08:02:40;;;;;;;19.80;12.50;;;;;;;13.58;100.00;101124.69;5104880;28;20184;-68
2022/10/19 08:05:06;;;;;;;17.57;12.10;;;;;;;13.19;100.00;101124.00;5090152;28;20275;-68
2022/10/19 08:07:32;;;;;;;21.93;11.87;;;;;;;13.12;100.00;101125.19;5084321;28;20756;-68
2022/10/19 08:09:58;;;;;;;17.23;10.30;;;;;;;12.94;100.00;101124.34;5085177;28;20539;-68
2022/10/19 08:12:23;;;;;;;16.03;9.63;;;;;;;12.86;100.00;101122.16;5095420;28;20720;-68
2022/10/19 08:14:48;;;;;;;18.90;8.83;;;;;;;12.80;100.00;101111.25;5089160;28;20714;-68
2022/10/19 08:17:16;;;;;;;10.63;7.87;;;;;;;12.68;100.00;101115.28;5089824;28;20196;-68
2022/10/19 08:19:43;;;;;;;14.60;8.30;;;;;;;12.85;100.00;101114.47;5090164;28;20179;-68
2022/10/19 08:22:08;;;;;;;13.70;7.90;;;;;;;13.05;100.00;101116.09;5095100;28;20686;-68
2022/10/19 08:24:33;;;;;;;12.33;8.03;;;;;;;13.01;100.00;101111.97;5090406;28;20272;-68
2022/10/19 08:27:01;;;;;;;13.53;8.20;;;;;;;12.89;100.00;101111.66;5089698;28;20802;-68
2022/10/19 08:29:27;;;;;;;14.47;7.97;;;;;;;12.88;100.00;101115.16;5090349;28;20180;-68
2022/10/19 08:31:53;;;;;;;10.77;6.60;;;;;;;12.87;100.00;101110.06;5079232;28;20223;-69
2022/10/19 08:34:18;;;;;;;11.33;6.60;;;;;;;12.95;100.00;101105.38;5091419;28;20175;-68
2022/10/19 08:36:44;;;;;;;15.00;6.80;;;;;;;12.90;100.00;101102.19;5087990;28;20211;-68
2022/10/19 08:39:11;;;;;;;9.53;6.23;;;;;;;12.98;100.00;101104.38;5089997;28;20176;-68
2022/10/19 08:41:36;;;;;;;10.13;5.87;;;;;;;13.01;100.00;101101.66;5085166;28;20235;-68
2022/10/19 08:44:11;;;;;;;9.70;5.87;;;;;;;13.28;100.00;101099.44;5088004;28;20180;-68
2022/10/19 08:47:10;;;;;;;10.60;6.03;;;;;;;14.17;100.00;101086.25;5081274;28;20183;-68
2022/10/19 08:49:36;;;;;;;13.17;6.40;;;;;;;15.49;100.00;101086.66;5089788;28;20666;-68
2022/10/19 08:52:32;;;;;;;11.07;5.87;;;;;;;17.84;100.00;101079.47;5094683;28;20222;-68
2022/10/19 08:55:12;;;;;;;8.53;5.87;;;;;;;17.65;100.00;101082.53;5029852;28;20541;-68
2022/10/19 08:58:14;;;;;;;9.70;5.27;;;;;;;18.10;97.59;101084.66;5046553;28;20188;-68
2022/10/19 09:00:44;;;;;;;9.83;5.40;;;;;;;20.16;86.31;101083.25;4962910;28;20222;-68
2022/10/19 09:03:23;;;;;;;9.93;5.40;;;;;;;20.37;76.13;101092.13;4975244;28;20184;-68
2022/10/19 09:05:58;;;;;;;10.43;5.20;;;;;;;19.60;83.69;101091.94;4990576;28;20761;-68
2022/10/19 09:08:23;;;;;;;10.47;5.37;;;;;;;18.32;89.29;101089.16;4990789;28;20226;-68
2022/10/19 09:10:51;;;;;;;8.40;5.03;;;;;;;18.83;88.21;101082.06;4981298;28;20231;-68
2022/10/19 09:13:32;;;;;;;9.87;5.37;;;;;;;18.38;90.52;101080.06;4995409;28;20227;-68
2022/10/19 09:15:57;;;;;;;10.97;5.03;;;;;;;17.23;96.33;101090.53;5000031;28;20193;-68
2022/10/19 09:18:26;;;;;;;10.47;5.47;;;;;;;17.49;97.20;101090.56;4990636;28;20724;-68
2022/10/19 09:20:59;;;;;;;11.60;6.20;;;;;;;17.38;99.42;101088.66;4981402;28;20230;-68
2022/10/19 09:23:38;;;;;;;9.70;5.53;;;;;;;17.95;97.20;101081.38;4991433;28;20308;-68
2022/10/19 09:26:11;;;;;;;9.20;5.23;;;;;;;19.45;83.09;101090.50;4990862;28;20635;-69
2022/10/19 09:28:51;;;;;;;8.00;5.80;;;;;;;18.60;87.22;101081.13;4990020;28;20210;-68
2022/10/19 09:31:27;;;;;;;11.17;5.33;;;;;;;18.37;89.13;101079.25;4997137;28;20344;-69
2022/10/19 09:33:59;;;;;;;10.10;5.77;;;;;;;18.31;90.72;101073.66;5029803;28;20200;-69
2022/10/19 09:36:40;;;;;;;8.93;5.50;;;;;;;18.55;89.02;101076.25;5037347;28;20205;-68
2022/10/19 09:39:05;;;;;;;7.43;5.30;;;;;;;19.20;83.54;101066.28;5066345;28;20176;-69
2022/10/19 09:41:32;;;;;;;9.13;5.07;;;;;;;18.71;87.68;101076.78;5053395;28;20282;-69
2022/10/19 09:43:58;;;;;;;8.03;5.20;;;;;;;18.04;91.51;101074.69;5066074;28;20200;-70
2022/10/19 09:47:11;;;;;;;13.70;5.90;;;;;;;18.35;90.77;101078.53;5075324;28;20189;-70
2022/10/19 09:49:40;;;;;;;9.33;5.40;;;;;;;18.76;87.96;101079.06;5160455;22;20237;-79
2022/10/19 09:52:23;;;;;;;12.03;6.27;;;;;;;18.76;86.05;101080.84;5052828;28;20279;-80
2022/10/19 09:55:00;;;;;;;9.93;5.60;;;;;;;18.09;90.60;101075.19;5037987;28;20178;-77
2022/10/19 09:57:26;;;;;;;12.07;6.23;;;;;;;18.21;91.49;101073.50;5053044;28;20204;-75
2022/10/19 09:59:55;;;;;;;9.97;5.70;;;;;;;17.66;97.70;101070.34;5039183;28;20604;-78
2022/10/19 10:02:27;;;;;;;9.03;5.67;;;;;;;17.00;100.00;101073.84;5053645;28;20193;-79
2022/10/19 10:05:09;;;;;;;8.23;5.27;;;;;;;15.51;100.00;101060.66;5033933;28;20227;-79
2022/10/19 10:07:37;;;;;;;9.80;6.57;;;;;;;15.29;100.00;101064.53;5052745;28;20205;-79
2022/10/19 10:10:20;;;;;;;7.93;6.17;;;;;;;14.80;100.00;101063.88;5053329;28;20178;-75
2022/10/19 10:12:46;;;;;;;10.53;7.40;;;;;;;14.28;100.00;101059.81;5052802;28;20216;-79
2022/10/19 10:15:20;;;;;;;10.90;7.60;;;;;;;14.22;100.00;101073.09;5035576;28;20185;-78
2022/10/19 10:17:47;;;;;;;13.83;7.50;;;;;;;13.88;100.00;101075.72;5035369;28;20205;-78
2022/10/19 10:20:31;;;;;;;11.43;7.40;;;;;;;13.69;100.00;101075.03;5052924;28;20217;-77
2022/10/19 10:23:01;;;;;;;11.00;6.93;;;;;;;13.81;100.00;101076.13;5053349;28;20205;-84
2022/10/19 10:25:35;;;;;;;11.93;8.17;;;;;;;13.83;100.00;101082.03;5051525;28;20236;-84
2022/10/19 10:28:39;;;;;;;10.87;7.60;;;;;;;13.56;100.00;101069.66;5052866;28;20201;-83
2022/10/19 10:31:07;;;;;;;14.20;7.77;;;;;;;13.61;100.00;101074.59;5052280;28;20256;-83
2022/10/19 10:33:36;;;;;;;11.60;7.87;;;;;;;13.55;100.00;101079.16;5050953;28;20200;-79
2022/10/19 10:36:08;;;;;;;12.13;7.87;;;;;;;13.50;100.00;101069.97;5042269;28;20178;-81
2022/10/19 10:38:48;;;;;;;10.17;7.53;;;;;;;13.44;100.00;101075.47;5053191;28;20188;-81
2022/10/19 10:41:22;;;;;;;13.73;7.73;;;;;;;13.62;100.00;101071.06;5035053;28;20547;-80
2022/10/19 10:43:51;;;;;;;12.73;7.40;;;;;;;13.84;100.00;101074.22;5039028;28;20197;-81
2022/10/19 10:46:21;;;;;;;10.63;8.17;;;;;;;13.71;100.00;101074.03;5051185;28;20181;-80
2022/10/19 10:48:58;;;;;;;12.07;8.10;;;;;;;13.84;100.00;101063.88;5049115;28;20232;-79
2022/10/19 10:51:33;;;;;;;14.60;8.03;;;;;;;13.83;100.00;101062.22;5034991;28;20185;-79
2022/10/19 10:54:07;;;;;;;10.83;8.10;;;;;;;13.81;100.00;101058.03;5052987;28;20206;-79
2022/10/19 10:56:34;;;;;;;12.57;8.63;;;;;;;13.79;100.00;101057.28;5052062;28;20245;-78
2022/10/19 10:59:14;;;;;;;13.43;8.40;;;;;;;13.81;100.00;101051.09;5029320;28;20216;-78
2022/10/19 11:01:49;;;;;;;9.53;8.30;;;;;;;14.03;100.00;101049.97;5049246;28;20217;-78
2022/10/19 11:04:24;;;;;;;16.73;8.90;;;;;;;13.92;100.00;101049.69;5052724;28;20184;-79
2022/10/19 11:06:55;;;;;;;10.63;7.93;;;;;;;13.87;100.00;101039.63;5034210;28;20189;-79
2022/10/19 11:09:30;;;;;;;9.43;6.63;;;;;;;14.09;100.00;101041.03;5052103;28;20212;-81
2022/10/19 11:12:01;;;;;;;9.93;7.50;;;;;;;14.17;100.00;101031.94;5034549;28;20177;-78
2022/10/19 11:14:36;;;;;;;13.17;7.50;;;;;;;14.06;100.00;101023.09;5052412;28;20189;-75